Portada
METAR-TAF:

METAR-TAF

Aeropuertos :

Burgos, España

Aeropuerto de Burgos

latitud: 42-22N, longitud: 003-38W, altitud: 894 m

Observación

El informe se hizo hace 37 minutos, a las 16:00 UTC
Viento 6 kt del suroeste, variando entre sur y oeste
Temperatura 24°C
Humedad 24%
Presión 1019 hPa
Visibilidad 10 km o más
sin nubes por debajo de 1500 m y sin presencia de cumulonimbus.

METAR: LEBG 201600Z 23006KT 170V270 CAVOK 24/02 Q1019

Hora: 18:37 (16:37 UTC)

Pronóstico

El informe se hizo hace 2 horas y 37 minutos, a las 14:00 UTC
Pronóstico válido del 20 a las 15 UTC al 20 a las 24 UTC
Viento 5 kt con dirección variable
Visibilidad 10 km o más
sin nubes por debajo de 1500 m y sin presencia de cumulonimbus.

TAF: LEBG 201400Z 2015/2024 VRB05KT CAVOK

Observaciones y pronósticos meteorológicos de más de 4000 aeropuertos (mensajes METAR y TAF).

Los puntos amarillos y rojos representan las estaciones disponibles.

Ponga el ratón en el punto deseado para ver el nombre de la estación.

Haga clic para ver las observaciones y los pronósticos meteorológicos.

Para cambiar el mapa : haga clic en los botones verdes con una cruz de color negro para hacer un zoom, en el botón verde con un guión para alejar o en las flechas verdes para mapas adyacentes.


METAR-TAF: